createdAt,value
2023-08-07T00:01:32.928Z,16.70
2023-08-07T00:04:05.995Z,16.70
2023-08-07T00:06:37.809Z,16.70
2023-08-07T00:09:09.750Z,16.70
2023-08-07T00:11:41.609Z,16.60
2023-08-07T00:14:13.432Z,16.70
2023-08-07T00:16:45.294Z,16.70
2023-08-07T00:19:18.458Z,16.70
2023-08-07T00:21:50.323Z,16.70
2023-08-07T00:24:20.175Z,16.60
2023-08-07T00:26:52.027Z,16.60
2023-08-07T00:29:23.929Z,16.40
2023-08-07T00:31:55.890Z,16.40
2023-08-07T00:34:29.154Z,16.30
2023-08-07T00:37:01.028Z,16.40
2023-08-07T00:39:33.045Z,16.40
2023-08-07T00:42:05.008Z,16.40
2023-08-07T00:44:36.857Z,16.30
2023-08-07T00:47:09.709Z,16.30
2023-08-07T00:49:43.351Z,16.20
2023-08-07T00:52:15.306Z,16.30
2023-08-07T00:54:47.465Z,16.30
2023-08-07T00:57:23.956Z,16.20
2023-08-07T00:59:57.166Z,16.20
2023-08-07T01:02:29.229Z,16.10
2023-08-07T01:05:03.546Z,16.20
2023-08-07T01:07:35.317Z,16.20
2023-08-07T01:10:07.395Z,16.10
2023-08-07T01:12:49.956Z,16.20
2023-08-07T01:15:28.618Z,16.00
2023-08-07T01:18:01.932Z,16.10
2023-08-07T01:20:34.964Z,16.00
2023-08-07T01:23:08.165Z,16.00
2023-08-07T01:25:41.684Z,16.00
2023-08-07T01:28:23.857Z,15.90
2023-08-07T01:31:01.554Z,15.90
2023-08-07T01:33:42.303Z,15.90
2023-08-07T01:36:18.583Z,15.90
2023-08-07T01:38:55.018Z,16.00
2023-08-07T01:41:27.724Z,16.00
2023-08-07T01:44:00.064Z,16.00
2023-08-07T01:46:31.984Z,15.90
2023-08-07T01:49:03.913Z,15.90
2023-08-07T01:51:35.887Z,15.90
2023-08-07T01:54:09.918Z,16.00
2023-08-07T01:56:41.795Z,15.90
2023-08-07T01:59:13.543Z,15.90
2023-08-07T02:01:45.598Z,15.90
2023-08-07T02:04:17.474Z,15.90
2023-08-07T02:06:49.354Z,15.90
2023-08-07T02:09:22.838Z,15.80
2023-08-07T02:11:54.794Z,15.60
2023-08-07T02:14:26.875Z,15.70
2023-08-07T02:16:58.516Z,15.70
2023-08-07T02:19:30.482Z,15.70
2023-08-07T02:22:02.385Z,15.70
2023-08-07T02:24:35.374Z,15.70
2023-08-07T02:27:07.410Z,15.70
2023-08-07T02:29:39.502Z,15.70
2023-08-07T02:32:11.742Z,15.70
2023-08-07T02:34:43.410Z,15.60
2023-08-07T02:37:15.702Z,15.50
2023-08-07T02:39:49.961Z,15.60
2023-08-07T02:42:23.110Z,15.50
2023-08-07T02:44:54.984Z,15.50
2023-08-07T02:47:26.900Z,15.50
2023-08-07T02:49:58.870Z,15.50
2023-08-07T02:52:31.308Z,15.50
2023-08-07T02:55:04.302Z,15.50
2023-08-07T02:57:36.574Z,15.40
2023-08-07T03:00:10.247Z,15.40
2023-08-07T03:02:42.280Z,15.30
2023-08-07T03:05:14.471Z,15.30
2023-08-07T03:07:46.420Z,15.40
2023-08-07T03:10:20.322Z,15.30
2023-08-07T03:12:52.337Z,15.40
2023-08-07T03:15:24.050Z,15.40
2023-08-07T03:17:55.969Z,15.40
2023-08-07T03:20:27.907Z,15.30
2023-08-07T03:22:59.882Z,15.40
2023-08-07T03:25:32.827Z,15.30
2023-08-07T03:28:04.728Z,15.30
2023-08-07T03:30:36.743Z,15.30
2023-08-07T03:33:08.796Z,15.30
2023-08-07T03:35:42.009Z,15.40
2023-08-07T03:38:13.769Z,15.40
2023-08-07T03:40:46.783Z,15.40
2023-08-07T03:43:18.763Z,15.50
2023-08-07T03:45:55.971Z,15.40
2023-08-07T03:48:27.870Z,15.30
2023-08-07T03:51:04.745Z,15.30
2023-08-07T03:53:36.616Z,15.40
2023-08-07T03:56:09.750Z,15.40
2023-08-07T03:58:41.782Z,15.30
2023-08-07T04:01:13.675Z,15.30
2023-08-07T04:03:45.670Z,15.30
2023-08-07T04:06:17.639Z,15.30
2023-08-07T04:08:51.488Z,15.30
2023-08-07T04:11:24.459Z,15.30
2023-08-07T04:13:56.344Z,15.30
2023-08-07T04:16:28.197Z,15.30
2023-08-07T04:19:00.203Z,15.30
2023-08-07T04:21:32.256Z,15.30
2023-08-07T04:24:09.037Z,15.40
2023-08-07T04:26:42.777Z,15.40
2023-08-07T04:29:14.723Z,15.40
2023-08-07T04:31:46.762Z,15.40
2023-08-07T04:34:18.611Z,15.40
2023-08-07T04:36:51.484Z,15.30
2023-08-07T04:39:25.167Z,15.30
2023-08-07T04:41:58.373Z,15.30
2023-08-07T04:44:30.266Z,15.30
2023-08-07T04:47:02.451Z,15.30
2023-08-07T04:49:34.175Z,15.30
2023-08-07T04:52:20.643Z,15.30
2023-08-07T04:54:56.368Z,15.30
2023-08-07T04:57:29.596Z,15.30
2023-08-07T05:00:01.484Z,15.30
2023-08-07T05:02:33.575Z,15.30
2023-08-07T05:05:06.025Z,15.40
2023-08-07T05:07:38.993Z,15.30
2023-08-07T05:10:12.744Z,15.40
2023-08-07T05:12:45.721Z,15.30
2023-08-07T05:15:17.661Z,15.40
2023-08-07T05:17:49.643Z,15.30
2023-08-07T05:20:22.043Z,15.40
2023-08-07T05:22:53.761Z,15.40
2023-08-07T05:25:25.896Z,15.30
2023-08-07T05:27:58.986Z,15.40
2023-08-07T05:30:30.920Z,15.40
2023-08-07T05:33:02.790Z,15.40
2023-08-07T05:35:34.797Z,15.40
2023-08-07T05:38:06.601Z,15.40
2023-08-07T05:40:38.732Z,15.50
2023-08-07T05:43:12.156Z,15.50
2023-08-07T05:45:45.980Z,15.50
2023-08-07T05:48:18.195Z,15.50
2023-08-07T05:50:50.084Z,15.50
2023-08-07T05:53:22.043Z,15.50
2023-08-07T05:55:54.086Z,15.50
2023-08-07T05:58:27.170Z,15.50
2023-08-07T06:00:59.091Z,15.60
2023-08-07T06:03:31.260Z,15.60
2023-08-07T06:06:03.452Z,15.60
2023-08-07T06:08:35.338Z,15.60
2023-08-07T06:11:09.250Z,15.60
2023-08-07T06:13:44.142Z,15.50
2023-08-07T06:16:16.028Z,15.60
2023-08-07T06:18:48.054Z,15.60
2023-08-07T06:21:21.056Z,15.50
2023-08-07T06:23:52.858Z,15.50
2023-08-07T06:26:24.811Z,15.50
2023-08-07T06:28:57.939Z,15.50
2023-08-07T06:31:29.805Z,15.50
2023-08-07T06:34:01.906Z,15.60
2023-08-07T06:36:33.634Z,15.50
2023-08-07T06:39:05.618Z,15.50
2023-08-07T06:41:37.470Z,15.60
2023-08-07T06:44:10.791Z,15.60
2023-08-07T06:46:42.687Z,15.60
2023-08-07T06:49:14.607Z,15.60
2023-08-07T06:51:46.505Z,15.60
2023-08-07T06:54:18.371Z,15.60
2023-08-07T06:56:50.340Z,15.70
2023-08-07T06:59:23.329Z,15.80
2023-08-07T07:01:55.499Z,15.80
2023-08-07T07:04:29.057Z,15.80
2023-08-07T07:07:00.830Z,15.90
2023-08-07T07:09:32.994Z,15.90
2023-08-07T07:12:04.736Z,15.90
2023-08-07T07:14:38.288Z,15.90
2023-08-07T07:17:10.197Z,15.90
2023-08-07T07:19:42.150Z,15.90
2023-08-07T07:22:14.120Z,16.00
2023-08-07T07:24:46.222Z,16.00
2023-08-07T07:27:17.955Z,16.10
2023-08-07T07:29:51.197Z,16.10
2023-08-07T07:32:23.151Z,16.20
2023-08-07T07:34:55.059Z,16.20
2023-08-07T07:37:26.947Z,16.30
2023-08-07T07:39:58.640Z,16.30
2023-08-07T07:42:30.648Z,16.30
2023-08-07T07:45:04.107Z,16.30
2023-08-07T07:47:35.863Z,16.30
2023-08-07T07:50:14.795Z,16.40
2023-08-07T07:52:47.525Z,16.50
2023-08-07T07:55:19.494Z,16.60
2023-08-07T07:57:52.873Z,16.60
2023-08-07T08:00:28.086Z,16.50
2023-08-07T08:03:00.743Z,16.50
2023-08-07T08:05:35.448Z,16.50
2023-08-07T08:08:09.293Z,16.50
2023-08-07T08:10:41.179Z,16.60
2023-08-07T08:13:15.052Z,16.60
2023-08-07T08:15:49.202Z,16.70
2023-08-07T08:18:21.202Z,16.70
2023-08-07T08:20:53.392Z,16.70
2023-08-07T08:23:25.082Z,16.70
2023-08-07T08:25:57.076Z,16.70
2023-08-07T08:28:29.151Z,16.70
2023-08-07T08:31:02.403Z,16.70
2023-08-07T08:33:34.424Z,16.80
2023-08-07T08:36:06.615Z,16.80
2023-08-07T08:38:38.515Z,16.80
2023-08-07T08:41:12.823Z,16.90
2023-08-07T08:43:47.818Z,16.90
2023-08-07T08:46:26.542Z,16.90
2023-08-07T08:49:03.840Z,17.00
2023-08-07T08:51:36.646Z,17.00
2023-08-07T08:54:10.255Z,16.90
2023-08-07T08:56:43.885Z,16.90
2023-08-07T08:59:19.221Z,17.00
2023-08-07T09:01:55.079Z,17.20
2023-08-07T09:04:27.053Z,17.30
2023-08-07T09:06:59.169Z,17.30
2023-08-07T09:09:33.373Z,17.20
2023-08-07T09:12:06.818Z,17.00
2023-08-07T09:14:46.931Z,16.80
2023-08-07T09:17:22.468Z,16.70
2023-08-07T09:19:54.432Z,16.60
2023-08-07T09:22:26.440Z,16.50
2023-08-07T09:25:00.984Z,16.50
2023-08-07T09:27:32.758Z,16.50
2023-08-07T09:30:04.713Z,16.50
2023-08-07T09:32:37.857Z,16.50
2023-08-07T09:35:11.675Z,16.50
2023-08-07T09:37:45.118Z,16.50
2023-08-07T09:40:18.186Z,16.60
2023-08-07T09:42:55.728Z,16.70
2023-08-07T09:45:30.020Z,16.70
2023-08-07T09:48:07.865Z,16.70
2023-08-07T09:50:40.003Z,16.70
2023-08-07T09:53:12.212Z,16.80
2023-08-07T09:55:44.226Z,17.00
2023-08-07T09:58:19.127Z,17.10
2023-08-07T10:00:54.214Z,17.20
2023-08-07T10:03:27.944Z,17.20
2023-08-07T10:06:01.746Z,17.20
2023-08-07T10:08:36.367Z,17.10
2023-08-07T10:11:10.989Z,17.10
2023-08-07T10:13:43.270Z,17.20
2023-08-07T10:16:16.355Z,17.20
2023-08-07T10:18:49.431Z,17.10
2023-08-07T10:21:21.518Z,17.00
2023-08-07T10:23:58.547Z,17.00
2023-08-07T10:26:31.352Z,17.00
2023-08-07T10:29:06.614Z,16.90
2023-08-07T10:31:43.173Z,17.00
2023-08-07T10:34:16.698Z,17.10
2023-08-07T10:36:48.569Z,17.20
2023-08-07T10:39:23.660Z,17.40
2023-08-07T10:41:59.093Z,17.40
2023-08-07T10:44:32.175Z,17.30
2023-08-07T10:47:04.869Z,17.10
2023-08-07T10:49:38.533Z,16.80
2023-08-07T10:52:16.864Z,16.80
2023-08-07T10:54:52.467Z,16.90
2023-08-07T10:57:24.844Z,17.00
2023-08-07T11:00:09.007Z,17.10
2023-08-07T11:02:45.555Z,17.10
2023-08-07T11:05:19.904Z,17.00
2023-08-07T11:07:51.778Z,17.00
2023-08-07T11:10:23.522Z,17.10
2023-08-07T11:13:00.067Z,17.10
2023-08-07T11:15:31.974Z,17.10
2023-08-07T11:18:03.885Z,17.00
2023-08-07T11:20:39.348Z,17.00
2023-08-07T11:23:12.115Z,17.00
2023-08-07T11:25:45.205Z,17.00
2023-08-07T11:28:19.500Z,17.10
2023-08-07T11:30:54.133Z,17.20
2023-08-07T11:33:27.116Z,17.20
2023-08-07T11:36:01.621Z,17.20
2023-08-07T11:38:39.673Z,17.30
2023-08-07T11:41:14.946Z,17.60
2023-08-07T11:43:47.819Z,17.80
2023-08-07T11:46:20.398Z,18.00
2023-08-07T11:48:55.877Z,18.00
2023-08-07T11:51:30.172Z,17.70
2023-08-07T11:54:05.080Z,17.40
2023-08-07T11:56:36.962Z,17.20
2023-08-07T11:59:08.872Z,17.20
2023-08-07T12:01:43.835Z,17.30
2023-08-07T12:04:19.643Z,17.50
2023-08-07T12:07:00.674Z,17.80
2023-08-07T12:09:34.806Z,17.90
2023-08-07T12:12:10.626Z,18.00
2023-08-07T12:14:42.526Z,18.10
2023-08-07T12:17:15.361Z,18.20
2023-08-07T12:19:48.042Z,18.20
2023-08-07T12:22:25.621Z,18.30
2023-08-07T12:24:57.573Z,18.20
2023-08-07T12:27:29.489Z,18.10
2023-08-07T12:30:01.438Z,17.90
2023-08-07T12:32:33.106Z,17.70
2023-08-07T12:37:43.053Z,17.80
2023-08-07T12:42:55.523Z,18.30
2023-08-07T12:48:02.544Z,18.50
2023-08-07T12:50:34.638Z,18.40
2023-08-07T12:53:09.119Z,18.30
2023-08-07T12:55:41.181Z,18.30
2023-08-07T12:58:13.073Z,18.20
2023-08-07T13:00:45.526Z,18.20
2023-08-07T13:03:17.392Z,18.10
2023-08-07T13:05:49.422Z,18.20
2023-08-07T13:08:22.724Z,18.20
2023-08-07T13:10:54.976Z,18.30
2023-08-07T13:13:28.934Z,18.40
2023-08-07T13:16:00.583Z,18.60
2023-08-07T13:18:32.510Z,18.90
2023-08-07T13:21:04.420Z,18.90
2023-08-07T13:23:37.410Z,18.90
2023-08-07T13:26:09.418Z,19.00
2023-08-07T13:28:41.281Z,18.80
2023-08-07T13:31:13.352Z,18.70
2023-08-07T13:33:45.011Z,18.40
2023-08-07T13:36:17.117Z,18.20
2023-08-07T13:38:50.064Z,17.80
2023-08-07T13:41:21.972Z,17.60
2023-08-07T13:43:53.839Z,17.60
2023-08-07T13:46:25.961Z,17.60
2023-08-07T13:48:58.790Z,17.60
2023-08-07T13:51:30.454Z,17.70
2023-08-07T13:54:03.519Z,17.80
2023-08-07T13:56:36.095Z,18.00
2023-08-07T13:59:08.924Z,18.00
2023-08-07T14:01:40.560Z,18.20
2023-08-07T14:04:12.586Z,18.20
2023-08-07T14:06:45.516Z,18.30
2023-08-07T14:09:19.739Z,18.30
2023-08-07T14:11:51.439Z,18.30
2023-08-07T14:14:23.463Z,18.20
2023-08-07T14:16:58.428Z,18.20
2023-08-07T14:19:30.551Z,18.10
2023-08-07T14:22:02.441Z,18.10
2023-08-07T14:24:35.428Z,18.10
2023-08-07T14:27:08.362Z,18.00
2023-08-07T14:29:40.365Z,18.00
2023-08-07T14:32:12.075Z,18.00
2023-08-07T14:34:43.947Z,18.00
2023-08-07T14:37:15.888Z,18.00
2023-08-07T14:39:48.981Z,18.10
2023-08-07T14:42:20.903Z,18.10
2023-08-07T14:44:52.810Z,18.30
2023-08-07T14:47:24.781Z,18.50
2023-08-07T14:49:56.705Z,18.40
2023-08-07T14:52:28.621Z,18.30
2023-08-07T14:55:02.575Z,18.30
2023-08-07T14:57:34.272Z,18.30
2023-08-07T15:00:07.197Z,18.60
2023-08-07T15:02:40.974Z,18.70
2023-08-07T15:05:13.178Z,18.80
2023-08-07T15:07:45.174Z,18.70
2023-08-07T15:10:18.498Z,18.60
2023-08-07T15:12:50.382Z,18.50
2023-08-07T15:15:22.287Z,18.30
2023-08-07T15:17:54.615Z,18.20
2023-08-07T15:20:26.473Z,18.20
2023-08-07T15:22:58.386Z,18.10
2023-08-07T15:25:31.961Z,18.30
2023-08-07T15:28:04.967Z,18.40
2023-08-07T15:30:36.716Z,18.30
2023-08-07T15:33:09.523Z,18.30
2023-08-07T15:35:41.433Z,18.20
2023-08-07T15:38:13.837Z,18.10
2023-08-07T15:40:47.220Z,18.00
2023-08-07T15:43:19.216Z,17.90
2023-08-07T15:45:54.351Z,17.60
2023-08-07T15:48:26.330Z,17.60
2023-08-07T15:50:58.203Z,17.50
2023-08-07T15:53:30.237Z,17.60
2023-08-07T15:56:03.247Z,17.60
2023-08-07T15:58:35.159Z,17.60
2023-08-07T16:01:07.153Z,17.60
2023-08-07T16:03:39.222Z,17.60
2023-08-07T16:06:11.060Z,17.60
2023-08-07T16:08:42.973Z,17.50
2023-08-07T16:11:16.022Z,17.50
2023-08-07T16:13:48.167Z,17.50
2023-08-07T16:16:20.060Z,17.80
2023-08-07T16:18:52.035Z,18.00
2023-08-07T16:21:24.045Z,18.10
2023-08-07T16:23:55.944Z,18.20
2023-08-07T16:26:28.971Z,18.20
2023-08-07T16:29:00.836Z,18.20
2023-08-07T16:31:32.985Z,18.20
2023-08-07T16:34:04.863Z,18.20
2023-08-07T16:36:36.762Z,18.10
2023-08-07T16:39:08.530Z,18.00
2023-08-07T16:41:46.293Z,17.90
2023-08-07T16:44:18.406Z,17.80
2023-08-07T16:46:50.398Z,17.60
2023-08-07T16:49:22.181Z,17.50
2023-08-07T16:51:55.877Z,17.40
2023-08-07T16:54:28.390Z,17.20
2023-08-07T16:57:01.699Z,16.80
2023-08-07T16:59:33.546Z,16.50
2023-08-07T17:02:07.842Z,16.40
2023-08-07T17:04:39.714Z,16.30
2023-08-07T17:07:12.071Z,16.20
2023-08-07T17:09:43.952Z,16.10
2023-08-07T17:12:17.358Z,16.00
2023-08-07T17:14:49.243Z,15.80
2023-08-07T17:17:21.228Z,15.80
2023-08-07T17:19:53.062Z,15.60
2023-08-07T17:22:24.927Z,15.50
2023-08-07T17:24:56.958Z,15.50
2023-08-07T17:27:30.237Z,15.70
2023-08-07T17:30:02.118Z,15.80
2023-08-07T17:32:34.051Z,15.80
2023-08-07T17:35:06.084Z,15.80
2023-08-07T17:37:37.962Z,15.70
2023-08-07T17:40:12.839Z,15.70
2023-08-07T17:42:45.834Z,15.70
2023-08-07T17:45:17.736Z,15.70
2023-08-07T17:47:49.782Z,15.70
2023-08-07T17:50:22.017Z,15.70
2023-08-07T17:52:53.698Z,15.60
2023-08-07T17:55:26.368Z,15.60
2023-08-07T17:58:00.292Z,15.70
2023-08-07T18:00:31.969Z,15.60
2023-08-07T18:03:04.221Z,15.60
2023-08-07T18:05:38.396Z,15.60
2023-08-07T18:08:11.505Z,15.60
2023-08-07T18:10:43.665Z,15.60
2023-08-07T18:13:16.687Z,15.60
2023-08-07T18:15:48.631Z,15.60
2023-08-07T18:18:20.561Z,15.50
2023-08-07T18:20:52.410Z,15.50
2023-08-07T18:23:24.299Z,15.50
2023-08-07T18:25:56.204Z,15.50
2023-08-07T18:28:32.205Z,15.50
2023-08-07T18:31:04.435Z,15.50
2023-08-07T18:33:37.137Z,15.50
2023-08-07T18:36:09.228Z,15.40
2023-08-07T18:38:41.122Z,15.50
2023-08-07T18:41:13.154Z,15.30
2023-08-07T18:43:46.422Z,15.30
2023-08-07T18:46:18.556Z,15.30
2023-08-07T18:48:50.211Z,15.30
2023-08-07T18:51:22.536Z,15.40
2023-08-07T18:53:54.403Z,15.30
2023-08-07T18:56:26.404Z,15.20
2023-08-07T18:58:59.903Z,15.20
2023-08-07T19:01:32.008Z,15.20
2023-08-07T19:04:03.913Z,15.10
2023-08-07T19:06:36.099Z,15.10
2023-08-07T19:09:09.195Z,15.00
2023-08-07T19:11:41.388Z,15.00
2023-08-07T19:14:14.389Z,15.00
2023-08-07T19:16:47.006Z,15.00
2023-08-07T19:19:19.017Z,15.00
2023-08-07T19:21:51.047Z,15.00
2023-08-07T19:24:22.926Z,14.90
2023-08-07T19:26:54.829Z,15.00
2023-08-07T19:29:27.852Z,15.00
2023-08-07T19:32:00.003Z,14.90
2023-08-07T19:34:31.723Z,14.80
2023-08-07T19:37:03.933Z,14.80
2023-08-07T19:39:35.739Z,14.80
2023-08-07T19:42:08.875Z,14.90
2023-08-07T19:44:43.858Z,14.80
2023-08-07T19:47:22.432Z,14.80
2023-08-07T19:49:58.489Z,14.90
2023-08-07T19:52:30.168Z,14.90
2023-08-07T19:55:02.115Z,14.90
2023-08-07T19:57:34.101Z,14.90
2023-08-07T20:00:08.490Z,14.90
2023-08-07T20:02:40.143Z,14.90
2023-08-07T20:05:12.501Z,14.90
2023-08-07T20:07:44.414Z,14.80
2023-08-07T20:10:23.925Z,14.80
2023-08-07T20:12:55.985Z,14.70
2023-08-07T20:15:29.538Z,14.70
2023-08-07T20:18:01.489Z,14.70
2023-08-07T20:20:33.397Z,14.70
2023-08-07T20:23:05.532Z,14.70
2023-08-07T20:25:37.249Z,14.70
2023-08-07T20:28:10.648Z,14.60
2023-08-07T20:30:43.881Z,14.60
2023-08-07T20:33:15.619Z,14.50
2023-08-07T20:35:47.309Z,14.50
2023-08-07T20:38:19.231Z,14.50
2023-08-07T20:40:51.126Z,14.40
2023-08-07T20:43:23.150Z,14.50
2023-08-07T20:45:56.217Z,14.50
2023-08-07T20:48:28.086Z,14.50
2023-08-07T20:50:59.933Z,14.50
2023-08-07T20:53:31.975Z,14.50
2023-08-07T20:56:03.957Z,14.40
2023-08-07T20:58:36.193Z,14.50
2023-08-07T21:01:11.136Z,14.50
2023-08-07T21:03:43.059Z,14.50
2023-08-07T21:06:15.050Z,14.40
2023-08-07T21:08:48.408Z,14.40
2023-08-07T21:11:20.035Z,14.40
2023-08-07T21:13:51.956Z,14.40
2023-08-07T21:16:25.353Z,14.40
2023-08-07T21:18:57.657Z,14.40
2023-08-07T21:21:29.565Z,14.40
2023-08-07T21:24:01.728Z,14.40
2023-08-07T21:26:33.717Z,14.40
2023-08-07T21:29:05.600Z,14.40
2023-08-07T21:31:39.058Z,14.40
2023-08-07T21:34:11.099Z,14.30
2023-08-07T21:36:43.259Z,14.30
2023-08-07T21:39:14.969Z,14.30
2023-08-07T21:41:46.829Z,14.30
2023-08-07T21:44:18.781Z,14.30
2023-08-07T21:46:52.046Z,14.30
2023-08-07T21:49:23.938Z,13.20
2023-08-07T21:51:56.037Z,14.30
2023-08-07T21:54:28.271Z,14.20
2023-08-07T21:57:00.088Z,14.20
2023-08-07T21:59:31.956Z,14.20
2023-08-07T22:02:05.526Z,14.10
2023-08-07T22:04:37.268Z,14.00
2023-08-07T22:07:09.999Z,14.00
2023-08-07T22:09:41.928Z,14.00
2023-08-07T22:12:14.686Z,14.00
2023-08-07T22:14:46.597Z,14.00
2023-08-07T22:17:19.632Z,13.90
2023-08-07T22:20:02.789Z,13.90
2023-08-07T22:22:36.101Z,13.80
2023-08-07T22:25:10.935Z,13.80
2023-08-07T22:27:43.145Z,13.80
2023-08-07T22:30:17.142Z,13.70
2023-08-07T22:32:51.301Z,13.70
2023-08-07T22:35:23.714Z,13.70
2023-08-07T22:37:55.721Z,13.70
2023-08-07T22:40:27.606Z,13.70
2023-08-07T22:42:59.454Z,13.60
2023-08-07T22:45:31.798Z,13.60
2023-08-07T22:48:05.908Z,13.60
2023-08-07T22:50:38.309Z,13.70
2023-08-07T22:53:10.157Z,13.60
2023-08-07T22:55:43.353Z,13.70
2023-08-07T22:58:15.938Z,13.60
2023-08-07T23:00:47.930Z,13.60
2023-08-07T23:03:21.224Z,13.60
2023-08-07T23:05:52.943Z,13.60
2023-08-07T23:08:24.990Z,13.60
2023-08-07T23:10:56.860Z,13.50
2023-08-07T23:13:28.756Z,13.50
2023-08-07T23:16:00.789Z,13.50
2023-08-07T23:18:33.894Z,13.50
2023-08-07T23:21:05.717Z,13.50
2023-08-07T23:23:37.634Z,13.50
2023-08-07T23:26:09.531Z,13.40
2023-08-07T23:28:41.533Z,13.40
2023-08-07T23:31:13.870Z,13.30
2023-08-07T23:33:47.606Z,13.40
2023-08-07T23:36:19.466Z,13.30
2023-08-07T23:38:52.102Z,13.30
2023-08-07T23:41:23.804Z,13.30
2023-08-07T23:43:55.480Z,13.30
2023-08-07T23:46:27.757Z,13.30
2023-08-07T23:49:00.988Z,13.30
2023-08-07T23:51:32.827Z,13.40
2023-08-07T23:54:04.751Z,13.30
2023-08-07T23:56:36.676Z,13.30
2023-08-07T23:59:08.404Z,13.30
